sensor_id;sensor_type;location;lat;lon;timestamp;P1;durP1;ratioP1;P2;durP2;ratioP2
3261;SDS011;1643;47.746;9.000;2024-02-14T00:01:42;3.73;;;2.20;;
3261;SDS011;1643;47.746;9.000;2024-02-14T00:04:08;1.60;;;1.50;;
3261;SDS011;1643;47.746;9.000;2024-02-14T00:06:36;2.77;;;1.90;;
3261;SDS011;1643;47.746;9.000;2024-02-14T00:09:02;1.80;;;1.70;;
3261;SDS011;1643;47.746;9.000;2024-02-14T00:11:28;6.00;;;2.50;;
3261;SDS011;1643;47.746;9.000;2024-02-14T00:13:54;3.00;;;1.77;;
3261;SDS011;1643;47.746;9.000;2024-02-14T00:16:21;3.30;;;2.40;;
3261;SDS011;1643;47.746;9.000;2024-02-14T00:18:47;4.57;;;2.03;;
3261;SDS011;1643;47.746;9.000;2024-02-14T00:21:12;7.90;;;2.90;;
3261;SDS011;1643;47.746;9.000;2024-02-14T00:23:38;2.40;;;2.00;;
3261;SDS011;1643;47.746;9.000;2024-02-14T00:26:04;3.00;;;2.00;;
3261;SDS011;1643;47.746;9.000;2024-02-14T00:28:29;2.43;;;2.23;;
3261;SDS011;1643;47.746;9.000;2024-02-14T00:30:55;2.27;;;2.17;;
3261;SDS011;1643;47.746;9.000;2024-02-14T00:33:20;2.90;;;2.07;;
3261;SDS011;1643;47.746;9.000;2024-02-14T00:35:47;3.10;;;2.07;;
3261;SDS011;1643;47.746;9.000;2024-02-14T00:38:12;2.23;;;1.83;;
3261;SDS011;1643;47.746;9.000;2024-02-14T00:40:38;1.73;;;1.63;;
3261;SDS011;1643;47.746;9.000;2024-02-14T00:43:04;4.60;;;2.17;;
3261;SDS011;1643;47.746;9.000;2024-02-14T00:45:29;3.87;;;1.93;;
3261;SDS011;1643;47.746;9.000;2024-02-14T00:47:55;2.17;;;1.97;;
3261;SDS011;1643;47.746;9.000;2024-02-14T00:50:24;3.33;;;1.80;;
3261;SDS011;1643;47.746;9.000;2024-02-14T00:52:50;4.10;;;2.00;;
3261;SDS011;1643;47.746;9.000;2024-02-14T00:55:15;1.97;;;1.50;;
3261;SDS011;1643;47.746;9.000;2024-02-14T00:57:41;3.93;;;1.70;;
3261;SDS011;1643;47.746;9.000;2024-02-14T01:00:07;3.03;;;1.80;;
3261;SDS011;1643;47.746;9.000;2024-02-14T01:02:33;1.97;;;1.70;;
3261;SDS011;1643;47.746;9.000;2024-02-14T01:04:59;3.23;;;1.80;;
3261;SDS011;1643;47.746;9.000;2024-02-14T01:07:25;2.53;;;1.87;;
3261;SDS011;1643;47.746;9.000;2024-02-14T01:09:50;2.50;;;2.20;;
3261;SDS011;1643;47.746;9.000;2024-02-14T01:12:16;2.50;;;2.03;;
3261;SDS011;1643;47.746;9.000;2024-02-14T01:14:42;2.47;;;2.20;;
3261;SDS011;1643;47.746;9.000;2024-02-14T01:17:07;6.90;;;2.47;;
3261;SDS011;1643;47.746;9.000;2024-02-14T01:19:33;5.50;;;2.80;;
3261;SDS011;1643;47.746;9.000;2024-02-14T01:21:59;2.63;;;2.40;;
3261;SDS011;1643;47.746;9.000;2024-02-14T01:24:24;3.47;;;2.37;;
3261;SDS011;1643;47.746;9.000;2024-02-14T01:26:52;4.53;;;2.00;;
3261;SDS011;1643;47.746;9.000;2024-02-14T01:29:19;2.40;;;2.20;;
3261;SDS011;1643;47.746;9.000;2024-02-14T01:31:45;6.77;;;2.60;;
3261;SDS011;1643;47.746;9.000;2024-02-14T01:34:10;4.10;;;2.23;;
3261;SDS011;1643;47.746;9.000;2024-02-14T01:36:36;4.10;;;2.10;;
3261;SDS011;1643;47.746;9.000;2024-02-14T01:39:03;2.93;;;2.27;;
3261;SDS011;1643;47.746;9.000;2024-02-14T01:41:35;2.97;;;2.10;;
3261;SDS011;1643;47.746;9.000;2024-02-14T01:44:01;2.27;;;1.70;;
3261;SDS011;1643;47.746;9.000;2024-02-14T01:46:27;4.00;;;2.20;;
3261;SDS011;1643;47.746;9.000;2024-02-14T01:48:52;3.93;;;2.03;;
3261;SDS011;1643;47.746;9.000;2024-02-14T01:51:19;3.00;;;2.30;;
3261;SDS011;1643;47.746;9.000;2024-02-14T01:53:46;3.33;;;2.10;;
3261;SDS011;1643;47.746;9.000;2024-02-14T01:56:12;3.17;;;1.90;;
3261;SDS011;1643;47.746;9.000;2024-02-14T01:58:38;3.93;;;1.93;;
3261;SDS011;1643;47.746;9.000;2024-02-14T02:01:04;2.27;;;2.00;;
3261;SDS011;1643;47.746;9.000;2024-02-14T02:03:30;4.77;;;2.27;;
3261;SDS011;1643;47.746;9.000;2024-02-14T02:06:00;2.80;;;2.20;;
3261;SDS011;1643;47.746;9.000;2024-02-14T02:08:26;3.00;;;1.93;;
3261;SDS011;1643;47.746;9.000;2024-02-14T02:10:52;2.33;;;2.00;;
3261;SDS011;1643;47.746;9.000;2024-02-14T02:13:18;2.73;;;2.07;;
3261;SDS011;1643;47.746;9.000;2024-02-14T02:15:44;1.97;;;1.60;;
3261;SDS011;1643;47.746;9.000;2024-02-14T02:18:10;2.70;;;1.90;;
3261;SDS011;1643;47.746;9.000;2024-02-14T02:20:36;3.93;;;3.03;;
3261;SDS011;1643;47.746;9.000;2024-02-14T02:23:02;2.20;;;2.10;;
3261;SDS011;1643;47.746;9.000;2024-02-14T02:25:28;6.77;;;2.27;;
3261;SDS011;1643;47.746;9.000;2024-02-14T02:27:54;2.40;;;2.20;;
3261;SDS011;1643;47.746;9.000;2024-02-14T02:30:22;2.27;;;1.90;;
3261;SDS011;1643;47.746;9.000;2024-02-14T02:32:49;3.93;;;2.40;;
3261;SDS011;1643;47.746;9.000;2024-02-14T02:35:18;2.90;;;2.40;;
3261;SDS011;1643;47.746;9.000;2024-02-14T02:37:46;2.87;;;2.60;;
3261;SDS011;1643;47.746;9.000;2024-02-14T02:40:13;3.87;;;2.70;;
3261;SDS011;1643;47.746;9.000;2024-02-14T02:42:39;4.53;;;2.90;;
3261;SDS011;1643;47.746;9.000;2024-02-14T02:45:05;6.80;;;2.50;;
3261;SDS011;1643;47.746;9.000;2024-02-14T02:47:31;3.37;;;2.70;;
3261;SDS011;1643;47.746;9.000;2024-02-14T02:49:57;4.80;;;2.57;;
3261;SDS011;1643;47.746;9.000;2024-02-14T02:52:26;3.73;;;2.50;;
3261;SDS011;1643;47.746;9.000;2024-02-14T02:54:53;6.17;;;2.33;;
3261;SDS011;1643;47.746;9.000;2024-02-14T02:57:19;3.47;;;2.43;;
3261;SDS011;1643;47.746;9.000;2024-02-14T02:59:44;5.70;;;2.80;;
3261;SDS011;1643;47.746;9.000;2024-02-14T03:02:13;2.70;;;2.50;;
3261;SDS011;1643;47.746;9.000;2024-02-14T03:04:39;2.43;;;2.23;;
3261;SDS011;1643;47.746;9.000;2024-02-14T03:07:05;3.33;;;2.63;;
3261;SDS011;1643;47.746;9.000;2024-02-14T03:09:34;2.60;;;2.40;;
3261;SDS011;1643;47.746;9.000;2024-02-14T03:12:01;4.00;;;2.27;;
3261;SDS011;1643;47.746;9.000;2024-02-14T03:14:28;6.70;;;2.30;;
3261;SDS011;1643;47.746;9.000;2024-02-14T03:17:00;2.97;;;2.13;;
3261;SDS011;1643;47.746;9.000;2024-02-14T03:19:26;3.53;;;2.30;;
3261;SDS011;1643;47.746;9.000;2024-02-14T03:21:53;1.80;;;1.70;;
3261;SDS011;1643;47.746;9.000;2024-02-14T03:24:19;2.97;;;2.37;;
3261;SDS011;1643;47.746;9.000;2024-02-14T03:26:45;2.27;;;1.90;;
3261;SDS011;1643;47.746;9.000;2024-02-14T03:29:10;2.40;;;2.13;;
3261;SDS011;1643;47.746;9.000;2024-02-14T03:31:36;2.63;;;2.30;;
3261;SDS011;1643;47.746;9.000;2024-02-14T03:34:02;6.17;;;2.00;;
3261;SDS011;1643;47.746;9.000;2024-02-14T03:36:28;7.20;;;2.27;;
3261;SDS011;1643;47.746;9.000;2024-02-14T03:38:55;5.00;;;2.60;;
3261;SDS011;1643;47.746;9.000;2024-02-14T03:41:28;2.30;;;2.17;;
3261;SDS011;1643;47.746;9.000;2024-02-14T03:43:54;2.93;;;2.33;;
3261;SDS011;1643;47.746;9.000;2024-02-14T03:46:23;3.57;;;2.40;;
3261;SDS011;1643;47.746;9.000;2024-02-14T03:48:49;4.90;;;2.63;;
3261;SDS011;1643;47.746;9.000;2024-02-14T03:51:14;10.03;;;3.27;;
3261;SDS011;1643;47.746;9.000;2024-02-14T03:53:41;5.40;;;2.57;;
3261;SDS011;1643;47.746;9.000;2024-02-14T03:56:07;4.17;;;3.00;;
3261;SDS011;1643;47.746;9.000;2024-02-14T03:58:32;5.43;;;2.90;;
3261;SDS011;1643;47.746;9.000;2024-02-14T04:01:02;4.70;;;2.77;;
3261;SDS011;1643;47.746;9.000;2024-02-14T04:03:28;3.23;;;2.30;;
3261;SDS011;1643;47.746;9.000;2024-02-14T04:05:54;7.30;;;2.97;;
3261;SDS011;1643;47.746;9.000;2024-02-14T04:08:20;4.10;;;3.00;;
3261;SDS011;1643;47.746;9.000;2024-02-14T04:10:47;3.70;;;2.90;;
3261;SDS011;1643;47.746;9.000;2024-02-14T04:13:14;3.83;;;3.43;;
3261;SDS011;1643;47.746;9.000;2024-02-14T04:15:41;3.00;;;2.70;;
3261;SDS011;1643;47.746;9.000;2024-02-14T04:18:09;4.10;;;2.73;;
3261;SDS011;1643;47.746;9.000;2024-02-14T04:20:35;3.70;;;2.80;;
3261;SDS011;1643;47.746;9.000;2024-02-14T04:23:00;3.13;;;2.50;;
3261;SDS011;1643;47.746;9.000;2024-02-14T04:25:26;2.60;;;2.40;;
3261;SDS011;1643;47.746;9.000;2024-02-14T04:27:52;5.23;;;2.77;;
3261;SDS011;1643;47.746;9.000;2024-02-14T04:30:17;3.13;;;2.50;;
3261;SDS011;1643;47.746;9.000;2024-02-14T04:32:43;5.60;;;2.60;;
3261;SDS011;1643;47.746;9.000;2024-02-14T04:35:09;5.47;;;2.83;;
3261;SDS011;1643;47.746;9.000;2024-02-14T04:37:34;4.20;;;2.90;;
3261;SDS011;1643;47.746;9.000;2024-02-14T04:40:01;3.07;;;2.70;;
3261;SDS011;1643;47.746;9.000;2024-02-14T04:42:29;3.30;;;3.03;;
3261;SDS011;1643;47.746;9.000;2024-02-14T04:44:55;3.87;;;2.73;;
3261;SDS011;1643;47.746;9.000;2024-02-14T04:47:21;4.87;;;3.27;;
3261;SDS011;1643;47.746;9.000;2024-02-14T04:49:47;4.27;;;3.10;;
3261;SDS011;1643;47.746;9.000;2024-02-14T04:52:12;4.77;;;3.20;;
3261;SDS011;1643;47.746;9.000;2024-02-14T04:54:38;8.00;;;3.30;;
3261;SDS011;1643;47.746;9.000;2024-02-14T04:57:04;3.10;;;2.70;;
3261;SDS011;1643;47.746;9.000;2024-02-14T04:59:30;4.60;;;2.80;;
3261;SDS011;1643;47.746;9.000;2024-02-14T05:01:55;5.30;;;3.00;;
3261;SDS011;1643;47.746;9.000;2024-02-14T05:04:21;3.23;;;2.93;;
3261;SDS011;1643;47.746;9.000;2024-02-14T05:06:47;3.63;;;3.23;;
3261;SDS011;1643;47.746;9.000;2024-02-14T05:09:13;5.57;;;3.00;;
3261;SDS011;1643;47.746;9.000;2024-02-14T05:11:40;3.80;;;3.33;;
3261;SDS011;1643;47.746;9.000;2024-02-14T05:14:06;6.80;;;4.40;;
3261;SDS011;1643;47.746;9.000;2024-02-14T05:16:32;5.30;;;3.80;;
3261;SDS011;1643;47.746;9.000;2024-02-14T05:18:57;5.67;;;4.20;;
3261;SDS011;1643;47.746;9.000;2024-02-14T05:21:23;5.07;;;3.70;;
3261;SDS011;1643;47.746;9.000;2024-02-14T05:23:49;8.80;;;3.97;;
3261;SDS011;1643;47.746;9.000;2024-02-14T05:26:15;7.00;;;3.73;;
3261;SDS011;1643;47.746;9.000;2024-02-14T05:28:41;3.93;;;3.37;;
3261;SDS011;1643;47.746;9.000;2024-02-14T05:31:07;4.33;;;3.57;;
3261;SDS011;1643;47.746;9.000;2024-02-14T05:33:33;4.43;;;4.00;;
3261;SDS011;1643;47.746;9.000;2024-02-14T05:35:58;4.20;;;3.43;;
3261;SDS011;1643;47.746;9.000;2024-02-14T05:38:24;5.17;;;3.87;;
3261;SDS011;1643;47.746;9.000;2024-02-14T05:40:50;4.87;;;3.77;;
3261;SDS011;1643;47.746;9.000;2024-02-14T05:43:15;3.70;;;3.17;;
3261;SDS011;1643;47.746;9.000;2024-02-14T05:45:43;6.80;;;3.60;;
3261;SDS011;1643;47.746;9.000;2024-02-14T05:48:09;5.20;;;3.77;;
3261;SDS011;1643;47.746;9.000;2024-02-14T05:50:34;4.20;;;3.80;;
3261;SDS011;1643;47.746;9.000;2024-02-14T05:53:01;4.27;;;3.17;;
3261;SDS011;1643;47.746;9.000;2024-02-14T05:55:28;4.20;;;3.20;;
3261;SDS011;1643;47.746;9.000;2024-02-14T05:57:53;3.20;;;2.80;;
3261;SDS011;1643;47.746;9.000;2024-02-14T06:00:19;4.10;;;2.97;;
3261;SDS011;1643;47.746;9.000;2024-02-14T06:02:48;8.63;;;7.13;;
3261;SDS011;1643;47.746;9.000;2024-02-14T06:05:14;9.43;;;6.50;;
3261;SDS011;1643;47.746;9.000;2024-02-14T06:07:41;6.87;;;4.70;;
3261;SDS011;1643;47.746;9.000;2024-02-14T06:10:07;4.90;;;3.60;;
3261;SDS011;1643;47.746;9.000;2024-02-14T06:12:33;6.00;;;3.60;;
3261;SDS011;1643;47.746;9.000;2024-02-14T06:15:00;8.63;;;4.60;;
3261;SDS011;1643;47.746;9.000;2024-02-14T06:17:26;8.63;;;4.93;;
3261;SDS011;1643;47.746;9.000;2024-02-14T06:19:52;6.63;;;4.40;;
3261;SDS011;1643;47.746;9.000;2024-02-14T06:22:18;7.90;;;3.47;;
3261;SDS011;1643;47.746;9.000;2024-02-14T06:24:44;4.80;;;3.57;;
3261;SDS011;1643;47.746;9.000;2024-02-14T06:27:09;4.97;;;4.10;;
3261;SDS011;1643;47.746;9.000;2024-02-14T06:29:36;6.23;;;4.00;;
3261;SDS011;1643;47.746;9.000;2024-02-14T06:32:01;5.50;;;4.20;;
3261;SDS011;1643;47.746;9.000;2024-02-14T06:34:27;5.30;;;3.90;;
3261;SDS011;1643;47.746;9.000;2024-02-14T06:36:53;6.30;;;4.00;;
3261;SDS011;1643;47.746;9.000;2024-02-14T06:39:19;6.63;;;4.40;;
3261;SDS011;1643;47.746;9.000;2024-02-14T06:41:48;4.60;;;3.30;;
3261;SDS011;1643;47.746;9.000;2024-02-14T06:44:13;4.33;;;3.03;;
3261;SDS011;1643;47.746;9.000;2024-02-14T06:46:39;4.00;;;3.33;;
3261;SDS011;1643;47.746;9.000;2024-02-14T06:49:06;3.30;;;3.07;;
3261;SDS011;1643;47.746;9.000;2024-02-14T06:51:32;4.00;;;3.10;;
3261;SDS011;1643;47.746;9.000;2024-02-14T06:53:58;3.43;;;2.90;;
3261;SDS011;1643;47.746;9.000;2024-02-14T06:56:24;3.13;;;2.57;;
3261;SDS011;1643;47.746;9.000;2024-02-14T06:58:49;4.27;;;3.40;;
3261;SDS011;1643;47.746;9.000;2024-02-14T07:01:18;4.33;;;3.70;;
3261;SDS011;1643;47.746;9.000;2024-02-14T07:03:47;8.37;;;3.80;;
3261;SDS011;1643;47.746;9.000;2024-02-14T07:06:13;3.33;;;3.00;;
3261;SDS011;1643;47.746;9.000;2024-02-14T07:08:42;3.27;;;2.80;;
3261;SDS011;1643;47.746;9.000;2024-02-14T07:11:07;5.40;;;4.10;;
3261;SDS011;1643;47.746;9.000;2024-02-14T07:13:33;7.70;;;4.40;;
3261;SDS011;1643;47.746;9.000;2024-02-14T07:15:59;5.50;;;3.80;;
3261;SDS011;1643;47.746;9.000;2024-02-14T07:18:25;3.67;;;3.20;;
3261;SDS011;1643;47.746;9.000;2024-02-14T07:20:51;5.40;;;3.30;;
3261;SDS011;1643;47.746;9.000;2024-02-14T07:23:18;4.10;;;3.20;;
3261;SDS011;1643;47.746;9.000;2024-02-14T07:25:43;3.73;;;3.10;;
3261;SDS011;1643;47.746;9.000;2024-02-14T07:28:10;5.37;;;3.60;;
3261;SDS011;1643;47.746;9.000;2024-02-14T07:30:36;4.03;;;3.63;;
3261;SDS011;1643;47.746;9.000;2024-02-14T07:33:02;3.10;;;2.77;;
3261;SDS011;1643;47.746;9.000;2024-02-14T07:35:27;3.70;;;3.30;;
3261;SDS011;1643;47.746;9.000;2024-02-14T07:37:54;5.20;;;3.10;;
3261;SDS011;1643;47.746;9.000;2024-02-14T07:40:20;5.30;;;3.73;;
3261;SDS011;1643;47.746;9.000;2024-02-14T07:42:48;3.50;;;2.80;;
3261;SDS011;1643;47.746;9.000;2024-02-14T07:45:14;5.83;;;3.47;;
3261;SDS011;1643;47.746;9.000;2024-02-14T07:47:40;4.90;;;3.07;;
3261;SDS011;1643;47.746;9.000;2024-02-14T07:50:09;4.10;;;2.60;;
3261;SDS011;1643;47.746;9.000;2024-02-14T07:52:35;4.30;;;3.03;;
3261;SDS011;1643;47.746;9.000;2024-02-14T07:55:01;4.03;;;2.97;;
3261;SDS011;1643;47.746;9.000;2024-02-14T07:57:27;4.13;;;3.03;;
3261;SDS011;1643;47.746;9.000;2024-02-14T07:59:53;5.50;;;3.53;;
3261;SDS011;1643;47.746;9.000;2024-02-14T08:02:19;4.90;;;4.10;;
3261;SDS011;1643;47.746;9.000;2024-02-14T08:04:44;6.27;;;3.53;;
3261;SDS011;1643;47.746;9.000;2024-02-14T08:07:10;4.47;;;3.37;;
3261;SDS011;1643;47.746;9.000;2024-02-14T08:09:36;4.00;;;3.30;;
3261;SDS011;1643;47.746;9.000;2024-02-14T08:12:03;3.63;;;3.20;;
3261;SDS011;1643;47.746;9.000;2024-02-14T08:14:29;6.57;;;3.87;;
3261;SDS011;1643;47.746;9.000;2024-02-14T08:16:55;7.33;;;4.47;;
3261;SDS011;1643;47.746;9.000;2024-02-14T08:19:21;4.27;;;3.37;;
3261;SDS011;1643;47.746;9.000;2024-02-14T08:21:46;4.17;;;3.00;;
3261;SDS011;1643;47.746;9.000;2024-02-14T08:24:12;8.00;;;3.50;;
3261;SDS011;1643;47.746;9.000;2024-02-14T08:26:37;5.33;;;3.63;;
3261;SDS011;1643;47.746;9.000;2024-02-14T08:29:03;3.73;;;3.03;;
3261;SDS011;1643;47.746;9.000;2024-02-14T08:31:29;5.67;;;3.33;;
3261;SDS011;1643;47.746;9.000;2024-02-14T08:33:55;2.70;;;2.50;;
3261;SDS011;1643;47.746;9.000;2024-02-14T08:36:21;3.90;;;3.00;;
3261;SDS011;1643;47.746;9.000;2024-02-14T08:38:47;4.23;;;2.87;;
3261;SDS011;1643;47.746;9.000;2024-02-14T08:41:13;3.73;;;2.57;;
3261;SDS011;1643;47.746;9.000;2024-02-14T08:43:39;2.73;;;2.40;;
3261;SDS011;1643;47.746;9.000;2024-02-14T08:46:09;5.07;;;3.40;;
3261;SDS011;1643;47.746;9.000;2024-02-14T08:48:36;7.37;;;3.10;;
3261;SDS011;1643;47.746;9.000;2024-02-14T08:51:06;8.10;;;3.90;;
3261;SDS011;1643;47.746;9.000;2024-02-14T08:53:34;5.77;;;3.50;;
3261;SDS011;1643;47.746;9.000;2024-02-14T08:56:00;4.10;;;2.83;;
3261;SDS011;1643;47.746;9.000;2024-02-14T08:58:26;5.53;;;3.03;;
3261;SDS011;1643;47.746;9.000;2024-02-14T09:00:51;4.70;;;2.80;;
3261;SDS011;1643;47.746;9.000;2024-02-14T09:03:18;8.60;;;3.23;;
3261;SDS011;1643;47.746;9.000;2024-02-14T09:05:44;5.27;;;3.10;;
3261;SDS011;1643;47.746;9.000;2024-02-14T09:08:11;3.63;;;3.20;;
3261;SDS011;1643;47.746;9.000;2024-02-14T09:10:37;7.33;;;3.43;;
3261;SDS011;1643;47.746;9.000;2024-02-14T09:13:03;5.90;;;3.97;;
3261;SDS011;1643;47.746;9.000;2024-02-14T09:15:32;6.47;;;3.43;;
3261;SDS011;1643;47.746;9.000;2024-02-14T09:17:58;3.43;;;2.93;;
3261;SDS011;1643;47.746;9.000;2024-02-14T09:20:25;3.37;;;2.87;;
3261;SDS011;1643;47.746;9.000;2024-02-14T09:22:51;4.87;;;3.27;;
3261;SDS011;1643;47.746;9.000;2024-02-14T09:25:16;4.90;;;3.10;;
3261;SDS011;1643;47.746;9.000;2024-02-14T09:27:42;4.10;;;2.97;;
3261;SDS011;1643;47.746;9.000;2024-02-14T09:30:09;3.27;;;2.97;;
3261;SDS011;1643;47.746;9.000;2024-02-14T09:32:35;3.47;;;2.93;;
3261;SDS011;1643;47.746;9.000;2024-02-14T09:35:01;3.53;;;2.60;;
3261;SDS011;1643;47.746;9.000;2024-02-14T09:37:29;4.50;;;3.20;;
3261;SDS011;1643;47.746;9.000;2024-02-14T09:39:55;4.77;;;3.20;;
3261;SDS011;1643;47.746;9.000;2024-02-14T09:42:23;4.13;;;3.30;;
3261;SDS011;1643;47.746;9.000;2024-02-14T09:45:00;5.50;;;4.60;;
3261;SDS011;1643;47.746;9.000;2024-02-14T09:47:27;4.97;;;3.97;;
3261;SDS011;1643;47.746;9.000;2024-02-14T09:49:57;7.10;;;6.40;;
3261;SDS011;1643;47.746;9.000;2024-02-14T09:52:24;10.70;;;8.80;;
3261;SDS011;1643;47.746;9.000;2024-02-14T09:54:51;7.67;;;5.73;;
3261;SDS011;1643;47.746;9.000;2024-02-14T09:57:17;10.07;;;3.87;;
3261;SDS011;1643;47.746;9.000;2024-02-14T09:59:44;6.50;;;3.20;;
3261;SDS011;1643;47.746;9.000;2024-02-14T10:02:10;5.30;;;3.30;;
3261;SDS011;1643;47.746;9.000;2024-02-14T10:04:36;3.10;;;2.77;;
3261;SDS011;1643;47.746;9.000;2024-02-14T10:07:03;6.40;;;3.03;;
3261;SDS011;1643;47.746;9.000;2024-02-14T10:09:30;4.27;;;3.10;;
3261;SDS011;1643;47.746;9.000;2024-02-14T10:11:56;3.70;;;2.90;;
3261;SDS011;1643;47.746;9.000;2024-02-14T10:14:25;4.60;;;3.23;;
3261;SDS011;1643;47.746;9.000;2024-02-14T10:16:51;5.77;;;3.87;;
3261;SDS011;1643;47.746;9.000;2024-02-14T10:19:17;4.33;;;3.73;;
3261;SDS011;1643;47.746;9.000;2024-02-14T10:21:43;4.67;;;3.00;;
3261;SDS011;1643;47.746;9.000;2024-02-14T10:24:21;3.90;;;3.47;;
3261;SDS011;1643;47.746;9.000;2024-02-14T10:26:46;4.83;;;3.23;;
3261;SDS011;1643;47.746;9.000;2024-02-14T10:29:13;4.80;;;4.10;;
3261;SDS011;1643;47.746;9.000;2024-02-14T10:31:40;5.53;;;4.40;;
3261;SDS011;1643;47.746;9.000;2024-02-14T10:34:05;11.80;;;6.87;;
3261;SDS011;1643;47.746;9.000;2024-02-14T10:36:33;9.17;;;4.47;;
3261;SDS011;1643;47.746;9.000;2024-02-14T10:39:00;7.83;;;3.80;;
3261;SDS011;1643;47.746;9.000;2024-02-14T10:41:28;7.13;;;3.40;;
3261;SDS011;1643;47.746;9.000;2024-02-14T10:44:00;3.80;;;3.17;;
3261;SDS011;1643;47.746;9.000;2024-02-14T10:46:28;4.17;;;3.40;;
3261;SDS011;1643;47.746;9.000;2024-02-14T10:48:58;4.20;;;3.30;;
3261;SDS011;1643;47.746;9.000;2024-02-14T10:51:30;4.57;;;3.60;;
3261;SDS011;1643;47.746;9.000;2024-02-14T10:53:57;6.63;;;3.20;;
3261;SDS011;1643;47.746;9.000;2024-02-14T10:56:28;3.60;;;2.57;;
3261;SDS011;1643;47.746;9.000;2024-02-14T10:58:56;6.40;;;3.67;;
3261;SDS011;1643;47.746;9.000;2024-02-14T11:01:24;2.70;;;2.50;;
3261;SDS011;1643;47.746;9.000;2024-02-14T11:03:52;4.30;;;3.43;;
3261;SDS011;1643;47.746;9.000;2024-02-14T11:06:18;6.80;;;3.43;;
3261;SDS011;1643;47.746;9.000;2024-02-14T11:09:03;7.53;;;2.67;;
3261;SDS011;1643;47.746;9.000;2024-02-14T11:11:35;3.00;;;2.70;;
3261;SDS011;1643;47.746;9.000;2024-02-14T11:14:02;6.93;;;2.50;;
3261;SDS011;1643;47.746;9.000;2024-02-14T11:16:30;3.00;;;2.70;;
3261;SDS011;1643;47.746;9.000;2024-02-14T11:21:36;4.97;;;2.27;;
3261;SDS011;1643;47.746;9.000;2024-02-14T11:24:05;7.30;;;3.20;;
3261;SDS011;1643;47.746;9.000;2024-02-14T11:29:17;5.90;;;3.03;;
3261;SDS011;1643;47.746;9.000;2024-02-14T11:31:46;4.20;;;3.10;;
3261;SDS011;1643;47.746;9.000;2024-02-14T11:34:15;3.23;;;2.57;;
3261;SDS011;1643;47.746;9.000;2024-02-14T11:36:41;5.47;;;2.63;;
3261;SDS011;1643;47.746;9.000;2024-02-14T11:39:08;7.43;;;2.60;;
3261;SDS011;1643;47.746;9.000;2024-02-14T11:41:34;3.90;;;2.50;;
3261;SDS011;1643;47.746;9.000;2024-02-14T11:44:00;4.13;;;3.17;;
3261;SDS011;1643;47.746;9.000;2024-02-14T11:46:29;4.23;;;2.70;;
3261;SDS011;1643;47.746;9.000;2024-02-14T11:48:56;2.50;;;2.30;;
3261;SDS011;1643;47.746;9.000;2024-02-14T11:51:22;4.27;;;2.60;;
3261;SDS011;1643;47.746;9.000;2024-02-14T11:53:48;4.33;;;2.23;;
3261;SDS011;1643;47.746;9.000;2024-02-14T11:56:14;3.90;;;2.50;;
3261;SDS011;1643;47.746;9.000;2024-02-14T11:58:40;3.23;;;2.70;;
3261;SDS011;1643;47.746;9.000;2024-02-14T12:01:07;4.20;;;2.10;;
3261;SDS011;1643;47.746;9.000;2024-02-14T12:03:34;3.43;;;2.40;;
3261;SDS011;1643;47.746;9.000;2024-02-14T12:06:00;2.80;;;2.50;;
3261;SDS011;1643;47.746;9.000;2024-02-14T12:08:28;2.67;;;2.33;;
3261;SDS011;1643;47.746;9.000;2024-02-14T12:10:54;3.63;;;2.50;;
3261;SDS011;1643;47.746;9.000;2024-02-14T12:13:20;5.23;;;2.17;;
3261;SDS011;1643;47.746;9.000;2024-02-14T12:15:47;3.83;;;2.80;;
3261;SDS011;1643;47.746;9.000;2024-02-14T12:18:14;3.43;;;2.80;;
3261;SDS011;1643;47.746;9.000;2024-02-14T12:20:41;4.97;;;2.63;;
3261;SDS011;1643;47.746;9.000;2024-02-14T12:23:14;2.20;;;2.00;;
3261;SDS011;1643;47.746;9.000;2024-02-14T12:25:43;2.10;;;1.90;;
3261;SDS011;1643;47.746;9.000;2024-02-14T12:28:20;5.17;;;2.60;;
3261;SDS011;1643;47.746;9.000;2024-02-14T12:30:49;4.80;;;2.00;;
3261;SDS011;1643;47.746;9.000;2024-02-14T12:33:21;2.47;;;1.90;;
3261;SDS011;1643;47.746;9.000;2024-02-14T12:35:48;4.10;;;2.63;;
3261;SDS011;1643;47.746;9.000;2024-02-14T12:38:15;3.03;;;2.20;;
3261;SDS011;1643;47.746;9.000;2024-02-14T12:40:42;2.53;;;2.33;;
3261;SDS011;1643;47.746;9.000;2024-02-14T12:43:12;3.13;;;2.10;;
3261;SDS011;1643;47.746;9.000;2024-02-14T12:45:38;2.07;;;1.87;;
3261;SDS011;1643;47.746;9.000;2024-02-14T12:48:08;2.30;;;1.57;;
3261;SDS011;1643;47.746;9.000;2024-02-14T12:50:34;2.10;;;1.90;;
3261;SDS011;1643;47.746;9.000;2024-02-14T12:53:02;2.40;;;2.00;;
3261;SDS011;1643;47.746;9.000;2024-02-14T12:55:31;2.70;;;1.90;;
3261;SDS011;1643;47.746;9.000;2024-02-14T12:57:57;2.73;;;1.93;;
3261;SDS011;1643;47.746;9.000;2024-02-14T13:00:23;2.37;;;1.80;;
3261;SDS011;1643;47.746;9.000;2024-02-14T13:02:49;1.90;;;1.80;;
3261;SDS011;1643;47.746;9.000;2024-02-14T13:05:16;2.20;;;1.90;;
3261;SDS011;1643;47.746;9.000;2024-02-14T13:07:42;3.20;;;2.20;;
3261;SDS011;1643;47.746;9.000;2024-02-14T13:10:08;3.03;;;1.90;;
3261;SDS011;1643;47.746;9.000;2024-02-14T13:12:35;2.20;;;1.70;;
3261;SDS011;1643;47.746;9.000;2024-02-14T13:15:02;1.60;;;1.50;;
3261;SDS011;1643;47.746;9.000;2024-02-14T13:17:29;2.50;;;1.70;;
3261;SDS011;1643;47.746;9.000;2024-02-14T13:19:54;2.73;;;1.70;;
3261;SDS011;1643;47.746;9.000;2024-02-14T13:22:20;4.00;;;2.13;;
3261;SDS011;1643;47.746;9.000;2024-02-14T13:24:46;2.97;;;1.60;;
3261;SDS011;1643;47.746;9.000;2024-02-14T13:27:12;1.70;;;1.53;;
3261;SDS011;1643;47.746;9.000;2024-02-14T13:29:38;1.57;;;1.33;;
3261;SDS011;1643;47.746;9.000;2024-02-14T13:32:03;2.87;;;1.80;;
3261;SDS011;1643;47.746;9.000;2024-02-14T13:34:32;4.83;;;2.03;;
3261;SDS011;1643;47.746;9.000;2024-02-14T13:36:58;1.73;;;1.30;;
3261;SDS011;1643;47.746;9.000;2024-02-14T13:39:24;5.33;;;1.53;;
3261;SDS011;1643;47.746;9.000;2024-02-14T13:41:50;2.33;;;1.57;;
3261;SDS011;1643;47.746;9.000;2024-02-14T13:44:17;2.70;;;1.83;;
3261;SDS011;1643;47.746;9.000;2024-02-14T13:46:43;5.70;;;1.53;;
3261;SDS011;1643;47.746;9.000;2024-02-14T13:49:10;4.37;;;1.70;;
3261;SDS011;1643;47.746;9.000;2024-02-14T13:51:37;4.60;;;1.70;;
3261;SDS011;1643;47.746;9.000;2024-02-14T13:54:03;1.23;;;1.13;;
3261;SDS011;1643;47.746;9.000;2024-02-14T13:56:29;2.20;;;1.33;;
3261;SDS011;1643;47.746;9.000;2024-02-14T13:58:55;1.83;;;1.40;;
3261;SDS011;1643;47.746;9.000;2024-02-14T14:01:20;1.40;;;1.30;;
3261;SDS011;1643;47.746;9.000;2024-02-14T14:03:46;1.47;;;1.30;;
3261;SDS011;1643;47.746;9.000;2024-02-14T14:06:13;3.83;;;1.67;;
3261;SDS011;1643;47.746;9.000;2024-02-14T14:08:39;2.70;;;1.50;;
3261;SDS011;1643;47.746;9.000;2024-02-14T14:11:05;2.40;;;2.20;;
3261;SDS011;1643;47.746;9.000;2024-02-14T14:13:30;2.57;;;1.50;;
3261;SDS011;1643;47.746;9.000;2024-02-14T14:15:58;2.13;;;1.93;;
3261;SDS011;1643;47.746;9.000;2024-02-14T14:18:30;2.30;;;1.40;;
3261;SDS011;1643;47.746;9.000;2024-02-14T14:20:55;1.60;;;1.50;;
3261;SDS011;1643;47.746;9.000;2024-02-14T14:23:21;2.40;;;1.67;;
3261;SDS011;1643;47.746;9.000;2024-02-14T14:25:47;2.13;;;1.30;;
3261;SDS011;1643;47.746;9.000;2024-02-14T14:28:12;1.57;;;1.47;;
3261;SDS011;1643;47.746;9.000;2024-02-14T14:30:39;2.90;;;1.63;;
3261;SDS011;1643;47.746;9.000;2024-02-14T14:33:05;2.50;;;1.70;;
3261;SDS011;1643;47.746;9.000;2024-02-14T14:35:32;1.90;;;1.67;;
3261;SDS011;1643;47.746;9.000;2024-02-14T14:37:58;3.27;;;2.27;;
3261;SDS011;1643;47.746;9.000;2024-02-14T14:40:24;1.67;;;1.50;;
3261;SDS011;1643;47.746;9.000;2024-02-14T14:42:50;2.13;;;1.87;;
3261;SDS011;1643;47.746;9.000;2024-02-14T14:45:16;1.87;;;1.63;;
3261;SDS011;1643;47.746;9.000;2024-02-14T14:47:42;2.07;;;1.50;;
3261;SDS011;1643;47.746;9.000;2024-02-14T14:50:07;3.13;;;1.63;;
3261;SDS011;1643;47.746;9.000;2024-02-14T14:52:33;2.33;;;1.77;;
3261;SDS011;1643;47.746;9.000;2024-02-14T14:54:59;3.87;;;2.73;;
3261;SDS011;1643;47.746;9.000;2024-02-14T14:57:25;3.43;;;2.40;;
3261;SDS011;1643;47.746;9.000;2024-02-14T14:59:54;1.70;;;1.50;;
3261;SDS011;1643;47.746;9.000;2024-02-14T15:02:20;1.67;;;1.57;;
3261;SDS011;1643;47.746;9.000;2024-02-14T15:04:47;2.33;;;1.90;;
3261;SDS011;1643;47.746;9.000;2024-02-14T15:07:13;1.47;;;1.37;;
3261;SDS011;1643;47.746;9.000;2024-02-14T15:09:39;2.30;;;1.60;;
3261;SDS011;1643;47.746;9.000;2024-02-14T15:12:04;5.77;;;3.90;;
3261;SDS011;1643;47.746;9.000;2024-02-14T15:14:30;13.87;;;8.53;;
3261;SDS011;1643;47.746;9.000;2024-02-14T15:16:56;14.67;;;7.43;;